sensor_id;sensor_type;location;lat;lon;timestamp;P1;durP1;ratioP1;P2;durP2;ratioP2
7657;SDS011;8462;53.156;8.220;2023-02-28T00:00:10;7.87;;;4.13;;
7657;SDS011;8462;53.156;8.220;2023-02-28T00:02:39;7.13;;;4.40;;
7657;SDS011;8462;53.156;8.220;2023-02-28T00:05:08;9.33;;;4.83;;
7657;SDS011;8462;53.156;8.220;2023-02-28T00:07:36;8.50;;;5.07;;
7657;SDS011;8462;53.156;8.220;2023-02-28T00:10:06;7.53;;;4.73;;
7657;SDS011;8462;53.156;8.220;2023-02-28T00:12:36;8.70;;;4.20;;
7657;SDS011;8462;53.156;8.220;2023-02-28T00:15:05;11.07;;;5.63;;
7657;SDS011;8462;53.156;8.220;2023-02-28T00:17:33;6.57;;;4.50;;
7657;SDS011;8462;53.156;8.220;2023-02-28T00:20:00;10.83;;;4.90;;
7657;SDS011;8462;53.156;8.220;2023-02-28T00:22:36;7.30;;;4.73;;
7657;SDS011;8462;53.156;8.220;2023-02-28T00:25:06;10.23;;;4.57;;
7657;SDS011;8462;53.156;8.220;2023-02-28T00:27:34;7.60;;;5.67;;
7657;SDS011;8462;53.156;8.220;2023-02-28T00:30:03;8.53;;;5.20;;
7657;SDS011;8462;53.156;8.220;2023-02-28T00:32:33;8.77;;;5.20;;
7657;SDS011;8462;53.156;8.220;2023-02-28T00:35:00;9.53;;;6.23;;
7657;SDS011;8462;53.156;8.220;2023-02-28T00:37:27;8.43;;;5.47;;
7657;SDS011;8462;53.156;8.220;2023-02-28T00:39:55;10.00;;;5.07;;
7657;SDS011;8462;53.156;8.220;2023-02-28T00:42:23;8.63;;;5.00;;
7657;SDS011;8462;53.156;8.220;2023-02-28T00:44:50;6.63;;;5.00;;
7657;SDS011;8462;53.156;8.220;2023-02-28T00:47:17;10.40;;;4.90;;
7657;SDS011;8462;53.156;8.220;2023-02-28T00:49:44;6.10;;;4.70;;
7657;SDS011;8462;53.156;8.220;2023-02-28T00:52:11;8.60;;;5.47;;
7657;SDS011;8462;53.156;8.220;2023-02-28T00:54:38;7.87;;;5.77;;
7657;SDS011;8462;53.156;8.220;2023-02-28T00:57:06;7.43;;;5.07;;
7657;SDS011;8462;53.156;8.220;2023-02-28T00:59:34;7.80;;;4.97;;
7657;SDS011;8462;53.156;8.220;2023-02-28T01:02:01;6.03;;;4.33;;
7657;SDS011;8462;53.156;8.220;2023-02-28T01:04:28;7.70;;;4.87;;
7657;SDS011;8462;53.156;8.220;2023-02-28T01:06:55;8.10;;;4.73;;
7657;SDS011;8462;53.156;8.220;2023-02-28T01:09:22;8.90;;;4.90;;
7657;SDS011;8462;53.156;8.220;2023-02-28T01:11:48;7.03;;;5.10;;
7657;SDS011;8462;53.156;8.220;2023-02-28T01:14:16;7.20;;;4.90;;
7657;SDS011;8462;53.156;8.220;2023-02-28T01:16:46;6.87;;;4.50;;
7657;SDS011;8462;53.156;8.220;2023-02-28T01:19:13;9.37;;;5.00;;
7657;SDS011;8462;53.156;8.220;2023-02-28T01:21:40;7.30;;;4.47;;
7657;SDS011;8462;53.156;8.220;2023-02-28T01:24:06;9.17;;;4.73;;
7657;SDS011;8462;53.156;8.220;2023-02-28T01:26:35;10.43;;;4.70;;
7657;SDS011;8462;53.156;8.220;2023-02-28T01:29:02;7.47;;;4.40;;
7657;SDS011;8462;53.156;8.220;2023-02-28T01:31:29;7.73;;;4.80;;
7657;SDS011;8462;53.156;8.220;2023-02-28T01:33:57;11.47;;;5.33;;
7657;SDS011;8462;53.156;8.220;2023-02-28T01:36:27;7.60;;;4.90;;
7657;SDS011;8462;53.156;8.220;2023-02-28T01:38:54;6.30;;;4.47;;
7657;SDS011;8462;53.156;8.220;2023-02-28T01:41:22;9.03;;;4.87;;
7657;SDS011;8462;53.156;8.220;2023-02-28T01:43:53;6.73;;;4.67;;
7657;SDS011;8462;53.156;8.220;2023-02-28T01:46:23;8.30;;;4.80;;
7657;SDS011;8462;53.156;8.220;2023-02-28T01:48:53;7.67;;;4.93;;
7657;SDS011;8462;53.156;8.220;2023-02-28T01:51:26;9.77;;;5.70;;
7657;SDS011;8462;53.156;8.220;2023-02-28T01:53:58;6.57;;;4.77;;
7657;SDS011;8462;53.156;8.220;2023-02-28T01:56:29;8.37;;;4.80;;
7657;SDS011;8462;53.156;8.220;2023-02-28T01:58:59;8.20;;;5.10;;
7657;SDS011;8462;53.156;8.220;2023-02-28T02:01:27;6.63;;;4.97;;
7657;SDS011;8462;53.156;8.220;2023-02-28T02:03:55;7.20;;;4.83;;
7657;SDS011;8462;53.156;8.220;2023-02-28T02:06:29;6.37;;;4.93;;
7657;SDS011;8462;53.156;8.220;2023-02-28T02:09:00;12.00;;;5.90;;
7657;SDS011;8462;53.156;8.220;2023-02-28T02:11:28;5.77;;;4.63;;
7657;SDS011;8462;53.156;8.220;2023-02-28T02:14:10;7.03;;;4.80;;
7657;SDS011;8462;53.156;8.220;2023-02-28T02:16:53;8.73;;;5.60;;
7657;SDS011;8462;53.156;8.220;2023-02-28T02:19:37;9.70;;;5.57;;
7657;SDS011;8462;53.156;8.220;2023-02-28T02:22:21;8.60;;;5.07;;
7657;SDS011;8462;53.156;8.220;2023-02-28T02:25:15;8.87;;;5.40;;
7657;SDS011;8462;53.156;8.220;2023-02-28T02:28:04;7.97;;;4.53;;
7657;SDS011;8462;53.156;8.220;2023-02-28T02:34:10;7.90;;;5.00;;
7657;SDS011;8462;53.156;8.220;2023-02-28T02:36:53;9.03;;;5.47;;
7657;SDS011;8462;53.156;8.220;2023-02-28T02:39:30;8.83;;;4.63;;
7657;SDS011;8462;53.156;8.220;2023-02-28T02:42:03;10.03;;;5.03;;
7657;SDS011;8462;53.156;8.220;2023-02-28T02:44:39;7.73;;;4.87;;
7657;SDS011;8462;53.156;8.220;2023-02-28T02:47:10;7.40;;;4.83;;
7657;SDS011;8462;53.156;8.220;2023-02-28T02:49:42;6.73;;;4.40;;
7657;SDS011;8462;53.156;8.220;2023-02-28T02:52:13;5.03;;;3.80;;
7657;SDS011;8462;53.156;8.220;2023-02-28T02:54:44;9.30;;;5.27;;
7657;SDS011;8462;53.156;8.220;2023-02-28T02:57:15;5.30;;;4.13;;
7657;SDS011;8462;53.156;8.220;2023-02-28T02:59:46;8.63;;;4.93;;
7657;SDS011;8462;53.156;8.220;2023-02-28T03:02:16;5.77;;;4.37;;
7657;SDS011;8462;53.156;8.220;2023-02-28T03:04:48;8.17;;;4.87;;
7657;SDS011;8462;53.156;8.220;2023-02-28T03:07:20;8.27;;;4.50;;
7657;SDS011;8462;53.156;8.220;2023-02-28T03:09:51;7.23;;;4.10;;
7657;SDS011;8462;53.156;8.220;2023-02-28T03:12:18;6.87;;;4.67;;
7657;SDS011;8462;53.156;8.220;2023-02-28T03:14:52;8.20;;;4.13;;
7657;SDS011;8462;53.156;8.220;2023-02-28T03:20:19;7.13;;;3.97;;
7657;SDS011;8462;53.156;8.220;2023-02-28T03:22:59;8.30;;;4.17;;
7657;SDS011;8462;53.156;8.220;2023-02-28T03:25:35;7.27;;;3.53;;
7657;SDS011;8462;53.156;8.220;2023-02-28T03:28:11;6.07;;;3.90;;
7657;SDS011;8462;53.156;8.220;2023-02-28T03:30:45;5.97;;;3.80;;
7657;SDS011;8462;53.156;8.220;2023-02-28T03:33:20;6.07;;;3.97;;
7657;SDS011;8462;53.156;8.220;2023-02-28T03:35:52;5.70;;;3.97;;
7657;SDS011;8462;53.156;8.220;2023-02-28T03:38:26;7.33;;;3.70;;
7657;SDS011;8462;53.156;8.220;2023-02-28T03:40:59;7.40;;;3.73;;
7657;SDS011;8462;53.156;8.220;2023-02-28T03:43:32;8.13;;;3.90;;
7657;SDS011;8462;53.156;8.220;2023-02-28T03:46:04;6.43;;;3.73;;
7657;SDS011;8462;53.156;8.220;2023-02-28T03:48:35;4.57;;;3.43;;
7657;SDS011;8462;53.156;8.220;2023-02-28T03:51:08;6.40;;;3.93;;
7657;SDS011;8462;53.156;8.220;2023-02-28T03:53:37;6.57;;;4.10;;
7657;SDS011;8462;53.156;8.220;2023-02-28T03:56:17;5.70;;;4.07;;
7657;SDS011;8462;53.156;8.220;2023-02-28T03:58:47;7.00;;;3.80;;
7657;SDS011;8462;53.156;8.220;2023-02-28T04:01:20;7.47;;;3.97;;
7657;SDS011;8462;53.156;8.220;2023-02-28T04:03:51;5.97;;;4.13;;
7657;SDS011;8462;53.156;8.220;2023-02-28T04:06:20;6.07;;;3.73;;
7657;SDS011;8462;53.156;8.220;2023-02-28T04:08:49;7.87;;;3.90;;
7657;SDS011;8462;53.156;8.220;2023-02-28T04:11:18;6.00;;;4.00;;
7657;SDS011;8462;53.156;8.220;2023-02-28T04:13:48;5.93;;;4.10;;
7657;SDS011;8462;53.156;8.220;2023-02-28T04:16:15;6.17;;;3.80;;
7657;SDS011;8462;53.156;8.220;2023-02-28T04:18:43;6.90;;;4.47;;
7657;SDS011;8462;53.156;8.220;2023-02-28T04:21:10;7.67;;;4.63;;
7657;SDS011;8462;53.156;8.220;2023-02-28T04:23:38;9.07;;;4.60;;
7657;SDS011;8462;53.156;8.220;2023-02-28T04:26:05;7.53;;;4.10;;
7657;SDS011;8462;53.156;8.220;2023-02-28T04:28:33;7.73;;;4.43;;
7657;SDS011;8462;53.156;8.220;2023-02-28T04:31:01;11.17;;;4.90;;
7657;SDS011;8462;53.156;8.220;2023-02-28T04:33:29;8.13;;;4.90;;
7657;SDS011;8462;53.156;8.220;2023-02-28T04:36:00;7.63;;;4.70;;
7657;SDS011;8462;53.156;8.220;2023-02-28T04:38:28;9.93;;;5.17;;
7657;SDS011;8462;53.156;8.220;2023-02-28T04:40:58;8.80;;;5.70;;
7657;SDS011;8462;53.156;8.220;2023-02-28T04:43:25;8.70;;;5.17;;
7657;SDS011;8462;53.156;8.220;2023-02-28T04:45:53;7.70;;;5.70;;
7657;SDS011;8462;53.156;8.220;2023-02-28T04:48:21;9.13;;;5.67;;
7657;SDS011;8462;53.156;8.220;2023-02-28T04:50:49;7.73;;;5.37;;
7657;SDS011;8462;53.156;8.220;2023-02-28T04:53:16;9.17;;;5.67;;
7657;SDS011;8462;53.156;8.220;2023-02-28T04:55:43;8.33;;;6.33;;
7657;SDS011;8462;53.156;8.220;2023-02-28T04:58:11;8.83;;;5.67;;
7657;SDS011;8462;53.156;8.220;2023-02-28T05:00:38;11.90;;;6.07;;
7657;SDS011;8462;53.156;8.220;2023-02-28T05:03:05;11.70;;;5.97;;
7657;SDS011;8462;53.156;8.220;2023-02-28T05:05:32;7.53;;;5.80;;
7657;SDS011;8462;53.156;8.220;2023-02-28T05:07:59;8.63;;;6.30;;
7657;SDS011;8462;53.156;8.220;2023-02-28T05:10:26;9.93;;;6.03;;
7657;SDS011;8462;53.156;8.220;2023-02-28T05:12:53;9.73;;;6.37;;
7657;SDS011;8462;53.156;8.220;2023-02-28T05:15:21;7.63;;;5.87;;
7657;SDS011;8462;53.156;8.220;2023-02-28T05:17:48;10.43;;;6.93;;
7657;SDS011;8462;53.156;8.220;2023-02-28T05:20:15;7.07;;;5.20;;
7657;SDS011;8462;53.156;8.220;2023-02-28T05:22:42;7.37;;;5.40;;
7657;SDS011;8462;53.156;8.220;2023-02-28T05:25:10;8.90;;;5.33;;
7657;SDS011;8462;53.156;8.220;2023-02-28T05:27:40;9.37;;;6.40;;
7657;SDS011;8462;53.156;8.220;2023-02-28T05:30:08;8.27;;;5.83;;
7657;SDS011;8462;53.156;8.220;2023-02-28T05:32:37;8.33;;;6.00;;
7657;SDS011;8462;53.156;8.220;2023-02-28T05:35:08;6.90;;;5.63;;
7657;SDS011;8462;53.156;8.220;2023-02-28T05:37:36;7.60;;;5.93;;
7657;SDS011;8462;53.156;8.220;2023-02-28T05:40:05;7.23;;;5.97;;
7657;SDS011;8462;53.156;8.220;2023-02-28T05:42:35;11.07;;;5.67;;
7657;SDS011;8462;53.156;8.220;2023-02-28T05:45:02;9.63;;;5.63;;
7657;SDS011;8462;53.156;8.220;2023-02-28T05:47:30;9.00;;;5.47;;
7657;SDS011;8462;53.156;8.220;2023-02-28T05:49:59;7.50;;;5.30;;
7657;SDS011;8462;53.156;8.220;2023-02-28T05:52:26;6.17;;;5.27;;
7657;SDS011;8462;53.156;8.220;2023-02-28T05:54:53;10.97;;;5.77;;
7657;SDS011;8462;53.156;8.220;2023-02-28T05:57:20;8.50;;;5.70;;
7657;SDS011;8462;53.156;8.220;2023-02-28T05:59:46;7.10;;;5.23;;
7657;SDS011;8462;53.156;8.220;2023-02-28T06:02:14;6.80;;;4.87;;
7657;SDS011;8462;53.156;8.220;2023-02-28T06:04:43;6.60;;;5.27;;
7657;SDS011;8462;53.156;8.220;2023-02-28T06:07:11;8.10;;;5.03;;
7657;SDS011;8462;53.156;8.220;2023-02-28T06:09:38;6.83;;;5.27;;
7657;SDS011;8462;53.156;8.220;2023-02-28T06:12:06;6.77;;;5.20;;
7657;SDS011;8462;53.156;8.220;2023-02-28T06:14:35;7.53;;;4.93;;
7657;SDS011;8462;53.156;8.220;2023-02-28T06:17:02;10.17;;;5.50;;
7657;SDS011;8462;53.156;8.220;2023-02-28T06:19:29;9.43;;;5.27;;
7657;SDS011;8462;53.156;8.220;2023-02-28T06:21:56;7.93;;;5.30;;
7657;SDS011;8462;53.156;8.220;2023-02-28T06:24:26;7.73;;;5.83;;
7657;SDS011;8462;53.156;8.220;2023-02-28T06:26:54;7.30;;;5.70;;
7657;SDS011;8462;53.156;8.220;2023-02-28T06:29:21;8.27;;;5.90;;
7657;SDS011;8462;53.156;8.220;2023-02-28T06:31:48;5.40;;;4.73;;
7657;SDS011;8462;53.156;8.220;2023-02-28T06:34:15;6.33;;;4.80;;
7657;SDS011;8462;53.156;8.220;2023-02-28T06:36:42;7.93;;;5.10;;
7657;SDS011;8462;53.156;8.220;2023-02-28T06:39:09;8.90;;;4.63;;
7657;SDS011;8462;53.156;8.220;2023-02-28T06:41:37;6.40;;;4.37;;
7657;SDS011;8462;53.156;8.220;2023-02-28T06:44:05;5.97;;;4.93;;
7657;SDS011;8462;53.156;8.220;2023-02-28T06:46:40;6.87;;;4.80;;
7657;SDS011;8462;53.156;8.220;2023-02-28T06:49:07;11.43;;;5.00;;
7657;SDS011;8462;53.156;8.220;2023-02-28T06:51:35;8.63;;;4.50;;
7657;SDS011;8462;53.156;8.220;2023-02-28T06:54:03;6.90;;;4.60;;
7657;SDS011;8462;53.156;8.220;2023-02-28T06:56:30;8.80;;;4.70;;
7657;SDS011;8462;53.156;8.220;2023-02-28T06:58:59;7.40;;;3.90;;
7657;SDS011;8462;53.156;8.220;2023-02-28T07:01:26;5.47;;;4.10;;
7657;SDS011;8462;53.156;8.220;2023-02-28T07:03:53;5.70;;;4.37;;
7657;SDS011;8462;53.156;8.220;2023-02-28T07:06:20;6.37;;;4.40;;
7657;SDS011;8462;53.156;8.220;2023-02-28T07:08:48;5.23;;;3.93;;
7657;SDS011;8462;53.156;8.220;2023-02-28T07:11:15;9.77;;;4.23;;
7657;SDS011;8462;53.156;8.220;2023-02-28T07:13:42;7.37;;;4.53;;
7657;SDS011;8462;53.156;8.220;2023-02-28T07:16:10;7.63;;;4.53;;
7657;SDS011;8462;53.156;8.220;2023-02-28T07:18:38;6.47;;;4.60;;
7657;SDS011;8462;53.156;8.220;2023-02-28T07:21:05;5.97;;;4.27;;
7657;SDS011;8462;53.156;8.220;2023-02-28T07:23:34;10.27;;;4.77;;
7657;SDS011;8462;53.156;8.220;2023-02-28T07:26:03;6.47;;;4.43;;
7657;SDS011;8462;53.156;8.220;2023-02-28T07:28:30;7.00;;;4.40;;
7657;SDS011;8462;53.156;8.220;2023-02-28T07:31:02;5.67;;;4.13;;
7657;SDS011;8462;53.156;8.220;2023-02-28T07:33:31;5.57;;;3.80;;
7657;SDS011;8462;53.156;8.220;2023-02-28T07:36:02;10.73;;;4.20;;
7657;SDS011;8462;53.156;8.220;2023-02-28T07:38:30;6.37;;;4.50;;
7657;SDS011;8462;53.156;8.220;2023-02-28T07:40:59;11.17;;;3.90;;
7657;SDS011;8462;53.156;8.220;2023-02-28T07:43:29;5.70;;;3.93;;
7657;SDS011;8462;53.156;8.220;2023-02-28T07:46:00;7.10;;;4.53;;
7657;SDS011;8462;53.156;8.220;2023-02-28T07:48:28;6.10;;;4.07;;
7657;SDS011;8462;53.156;8.220;2023-02-28T07:50:56;5.33;;;3.30;;
7657;SDS011;8462;53.156;8.220;2023-02-28T07:53:23;4.50;;;3.50;;
7657;SDS011;8462;53.156;8.220;2023-02-28T07:55:51;7.63;;;3.60;;
7657;SDS011;8462;53.156;8.220;2023-02-28T07:58:21;4.60;;;3.40;;
7657;SDS011;8462;53.156;8.220;2023-02-28T08:00:48;5.43;;;3.40;;
7657;SDS011;8462;53.156;8.220;2023-02-28T08:03:22;7.53;;;4.80;;
7657;SDS011;8462;53.156;8.220;2023-02-28T08:05:49;8.17;;;4.10;;
7657;SDS011;8462;53.156;8.220;2023-02-28T08:08:19;8.33;;;3.07;;
7657;SDS011;8462;53.156;8.220;2023-02-28T08:10:45;6.57;;;4.00;;
7657;SDS011;8462;53.156;8.220;2023-02-28T08:13:14;4.53;;;3.47;;
7657;SDS011;8462;53.156;8.220;2023-02-28T08:15:40;3.90;;;3.30;;
7657;SDS011;8462;53.156;8.220;2023-02-28T08:18:09;4.13;;;3.30;;
7657;SDS011;8462;53.156;8.220;2023-02-28T08:20:36;6.17;;;3.13;;
7657;SDS011;8462;53.156;8.220;2023-02-28T08:23:03;6.30;;;3.67;;
7657;SDS011;8462;53.156;8.220;2023-02-28T08:25:31;3.80;;;3.40;;
7657;SDS011;8462;53.156;8.220;2023-02-28T08:27:58;6.13;;;3.23;;
7657;SDS011;8462;53.156;8.220;2023-02-28T08:30:26;4.77;;;3.20;;
7657;SDS011;8462;53.156;8.220;2023-02-28T08:32:53;5.33;;;3.50;;
7657;SDS011;8462;53.156;8.220;2023-02-28T08:35:20;7.60;;;3.07;;
7657;SDS011;8462;53.156;8.220;2023-02-28T08:37:47;5.13;;;3.00;;
7657;SDS011;8462;53.156;8.220;2023-02-28T08:40:14;4.00;;;2.90;;
7657;SDS011;8462;53.156;8.220;2023-02-28T08:42:44;4.73;;;2.63;;
7657;SDS011;8462;53.156;8.220;2023-02-28T08:45:11;5.17;;;2.67;;
7657;SDS011;8462;53.156;8.220;2023-02-28T08:47:39;7.13;;;2.90;;
7657;SDS011;8462;53.156;8.220;2023-02-28T08:50:07;4.73;;;3.20;;
7657;SDS011;8462;53.156;8.220;2023-02-28T08:52:35;4.50;;;2.80;;
7657;SDS011;8462;53.156;8.220;2023-02-28T08:55:03;4.90;;;2.90;;
7657;SDS011;8462;53.156;8.220;2023-02-28T08:57:31;4.73;;;2.70;;
7657;SDS011;8462;53.156;8.220;2023-02-28T08:59:59;3.47;;;2.70;;
7657;SDS011;8462;53.156;8.220;2023-02-28T09:02:29;4.77;;;2.77;;
7657;SDS011;8462;53.156;8.220;2023-02-28T09:04:56;7.77;;;3.23;;
7657;SDS011;8462;53.156;8.220;2023-02-28T09:07:23;9.57;;;2.43;;
7657;SDS011;8462;53.156;8.220;2023-02-28T09:09:51;6.50;;;3.30;;
7657;SDS011;8462;53.156;8.220;2023-02-28T09:12:20;3.13;;;2.30;;
7657;SDS011;8462;53.156;8.220;2023-02-28T09:14:47;3.43;;;2.27;;
7657;SDS011;8462;53.156;8.220;2023-02-28T09:17:16;4.07;;;2.67;;
7657;SDS011;8462;53.156;8.220;2023-02-28T09:19:44;7.90;;;2.80;;
7657;SDS011;8462;53.156;8.220;2023-02-28T09:22:11;13.07;;;4.03;;
7657;SDS011;8462;53.156;8.220;2023-02-28T09:24:38;3.13;;;1.73;;
7657;SDS011;8462;53.156;8.220;2023-02-28T09:27:05;1.53;;;1.43;;
7657;SDS011;8462;53.156;8.220;2023-02-28T09:29:32;2.93;;;1.63;;
7657;SDS011;8462;53.156;8.220;2023-02-28T09:32:00;6.17;;;1.97;;
7657;SDS011;8462;53.156;8.220;2023-02-28T09:34:28;3.73;;;2.10;;
7657;SDS011;8462;53.156;8.220;2023-02-28T09:36:57;2.77;;;1.60;;
7657;SDS011;8462;53.156;8.220;2023-02-28T09:39:24;2.43;;;1.70;;
7657;SDS011;8462;53.156;8.220;2023-02-28T09:41:54;6.03;;;2.40;;
7657;SDS011;8462;53.156;8.220;2023-02-28T09:44:27;2.47;;;1.97;;
7657;SDS011;8462;53.156;8.220;2023-02-28T09:46:58;2.27;;;1.60;;
7657;SDS011;8462;53.156;8.220;2023-02-28T09:49:33;3.03;;;1.73;;
7657;SDS011;8462;53.156;8.220;2023-02-28T09:52:05;3.63;;;1.90;;
7657;SDS011;8462;53.156;8.220;2023-02-28T09:54:35;3.47;;;1.70;;
7657;SDS011;8462;53.156;8.220;2023-02-28T09:57:06;2.70;;;1.70;;
7657;SDS011;8462;53.156;8.220;2023-02-28T10:05:32;1.90;;;1.50;;
7657;SDS011;8462;53.156;8.220;2023-02-28T10:08:06;4.07;;;1.67;;
7657;SDS011;8462;53.156;8.220;2023-02-28T10:10:39;2.70;;;1.60;;
7657;SDS011;8462;53.156;8.220;2023-02-28T10:13:12;5.23;;;1.90;;
7657;SDS011;8462;53.156;8.220;2023-02-28T10:15:45;2.17;;;1.90;;
7657;SDS011;8462;53.156;8.220;2023-02-28T10:18:19;2.90;;;1.53;;
7657;SDS011;8462;53.156;8.220;2023-02-28T10:20:54;4.60;;;1.73;;
7657;SDS011;8462;53.156;8.220;2023-02-28T10:23:23;1.63;;;1.40;;
7657;SDS011;8462;53.156;8.220;2023-02-28T10:25:55;4.63;;;1.90;;
7657;SDS011;8462;53.156;8.220;2023-02-28T10:28:25;7.33;;;1.80;;
7657;SDS011;8462;53.156;8.220;2023-02-28T10:30:55;2.67;;;1.47;;
7657;SDS011;8462;53.156;8.220;2023-02-28T10:33:25;2.43;;;1.43;;
7657;SDS011;8462;53.156;8.220;2023-02-28T10:35:56;4.80;;;2.10;;
7657;SDS011;8462;53.156;8.220;2023-02-28T10:38:24;3.20;;;1.60;;
7657;SDS011;8462;53.156;8.220;2023-02-28T10:40:57;2.03;;;1.33;;
7657;SDS011;8462;53.156;8.220;2023-02-28T10:43:31;3.17;;;1.60;;
7657;SDS011;8462;53.156;8.220;2023-02-28T10:45:59;2.50;;;1.27;;
7657;SDS011;8462;53.156;8.220;2023-02-28T10:48:31;1.97;;;1.40;;
7657;SDS011;8462;53.156;8.220;2023-02-28T10:51:04;1.77;;;1.30;;
7657;SDS011;8462;53.156;8.220;2023-02-28T10:53:36;3.37;;;1.60;;
7657;SDS011;8462;53.156;8.220;2023-02-28T10:56:14;3.73;;;1.70;;
7657;SDS011;8462;53.156;8.220;2023-02-28T10:58:47;2.63;;;1.13;;
7657;SDS011;8462;53.156;8.220;2023-02-28T11:01:17;1.97;;;1.57;;
7657;SDS011;8462;53.156;8.220;2023-02-28T11:03:45;5.77;;;2.77;;
7657;SDS011;8462;53.156;8.220;2023-02-28T11:06:16;2.03;;;1.50;;
7657;SDS011;8462;53.156;8.220;2023-02-28T11:08:46;2.70;;;1.40;;
7657;SDS011;8462;53.156;8.220;2023-02-28T11:11:15;4.20;;;2.17;;
7657;SDS011;8462;53.156;8.220;2023-02-28T11:13:44;2.13;;;1.50;;
7657;SDS011;8462;53.156;8.220;2023-02-28T11:16:13;1.57;;;1.30;;
7657;SDS011;8462;53.156;8.220;2023-02-28T11:18:42;1.90;;;1.60;;
7657;SDS011;8462;53.156;8.220;2023-02-28T11:21:23;2.47;;;1.37;;
7657;SDS011;8462;53.156;8.220;2023-02-28T11:23:54;2.63;;;1.20;;
7657;SDS011;8462;53.156;8.220;2023-02-28T11:26:38;2.00;;;1.27;;
7657;SDS011;8462;53.156;8.220;2023-02-28T11:29:12;2.80;;;1.57;;
7657;SDS011;8462;53.156;8.220;2023-02-28T11:34:46;1.87;;;1.50;;
7657;SDS011;8462;53.156;8.220;2023-02-28T11:37:27;2.47;;;1.57;;
7657;SDS011;8462;53.156;8.220;2023-02-28T11:39:55;2.00;;;1.50;;
7657;SDS011;8462;53.156;8.220;2023-02-28T11:42:25;2.37;;;1.50;;
7657;SDS011;8462;53.156;8.220;2023-02-28T11:47:56;2.90;;;1.57;;
7657;SDS011;8462;53.156;8.220;2023-02-28T11:53:39;1.47;;;1.30;;
7657;SDS011;8462;53.156;8.220;2023-02-28T11:56:18;1.53;;;1.30;;
7657;SDS011;8462;53.156;8.220;2023-02-28T11:58:54;2.57;;;1.37;;
7657;SDS011;8462;53.156;8.220;2023-02-28T12:01:36;1.33;;;1.23;;
7657;SDS011;8462;53.156;8.220;2023-02-28T12:04:22;3.17;;;1.73;;
7657;SDS011;8462;53.156;8.220;2023-02-28T12:06:55;1.63;;;1.43;;
7657;SDS011;8462;53.156;8.220;2023-02-28T12:09:42;2.93;;;1.50;;
7657;SDS011;8462;53.156;8.220;2023-02-28T12:12:20;1.63;;;1.30;;
7657;SDS011;8462;53.156;8.220;2023-02-28T12:18:00;2.40;;;1.30;;
7657;SDS011;8462;53.156;8.220;2023-02-28T12:20:40;3.33;;;1.47;;
7657;SDS011;8462;53.156;8.220;2023-02-28T12:23:36;3.90;;;2.00;;
7657;SDS011;8462;53.156;8.220;2023-02-28T12:26:16;1.40;;;1.30;;
7657;SDS011;8462;53.156;8.220;2023-02-28T12:28:50;1.70;;;1.30;;
7657;SDS011;8462;53.156;8.220;2023-02-28T12:31:20;1.80;;;1.40;;
7657;SDS011;8462;53.156;8.220;2023-02-28T12:33:51;2.43;;;1.40;;
7657;SDS011;8462;53.156;8.220;2023-02-28T12:36:22;1.43;;;1.33;;
7657;SDS011;8462;53.156;8.220;2023-02-28T12:38:52;2.90;;;1.13;;
7657;SDS011;8462;53.156;8.220;2023-02-28T12:41:29;1.87;;;1.20;;
7657;SDS011;8462;53.156;8.220;2023-02-28T12:44:03;2.43;;;1.17;;
7657;SDS011;8462;53.156;8.220;2023-02-28T12:46:35;3.23;;;1.43;;
7657;SDS011;8462;53.156;8.220;2023-02-28T12:49:09;3.80;;;1.57;;
7657;SDS011;8462;53.156;8.220;2023-02-28T12:51:40;1.50;;;1.30;;
7657;SDS011;8462;53.156;8.220;2023-02-28T12:54:10;1.60;;;1.33;;
7657;SDS011;8462;53.156;8.220;2023-02-28T12:56:45;2.27;;;1.50;;
7657;SDS011;8462;53.156;8.220;2023-02-28T12:59:19;1.63;;;1.43;;
7657;SDS011;8462;53.156;8.220;2023-02-28T13:04:54;3.27;;;1.70;;
7657;SDS011;8462;53.156;8.220;2023-02-28T13:10:38;1.90;;;1.40;;
7657;SDS011;8462;53.156;8.220;2023-02-28T13:13:11;4.17;;;1.83;;
7657;SDS011;8462;53.156;8.220;2023-02-28T13:15:47;1.67;;;1.30;;
7657;SDS011;8462;53.156;8.220;2023-02-28T13:18:28;2.50;;;1.50;;
7657;SDS011;8462;53.156;8.220;2023-02-28T13:20:58;1.63;;;1.40;;
7657;SDS011;8462;53.156;8.220;2023-02-28T13:23:36;2.37;;;1.63;;
7657;SDS011;8462;53.156;8.220;2023-02-28T13:29:36;1.93;;;1.53;;
7657;SDS011;8462;53.156;8.220;2023-02-28T13:32:18;2.30;;;1.87;;
7657;SDS011;8462;53.156;8.220;2023-02-28T13:38:24;1.87;;;1.43;;
7657;SDS011;8462;53.156;8.220;2023-02-28T13:44:06;2.97;;;1.60;;
7657;SDS011;8462;53.156;8.220;2023-02-28T13:46:38;2.97;;;1.60;;
7657;SDS011;8462;53.156;8.220;2023-02-28T13:49:43;3.70;;;1.43;;
7657;SDS011;8462;53.156;8.220;2023-02-28T13:52:15;2.40;;;1.40;;
7657;SDS011;8462;53.156;8.220;2023-02-28T13:54:50;3.97;;;1.70;;
7657;SDS011;8462;53.156;8.220;2023-02-28T13:57:42;2.43;;;1.40;;
7657;SDS011;8462;53.156;8.220;2023-02-28T14:00:21;1.53;;;1.30;;
7657;SDS011;8462;53.156;8.220;2023-02-28T14:03:05;1.33;;;1.23;;
7657;SDS011;8462;53.156;8.220;2023-02-28T14:05:59;1.67;;;1.20;;
7657;SDS011;8462;53.156;8.220;2023-02-28T14:08:35;2.87;;;1.37;;
7657;SDS011;8462;53.156;8.220;2023-02-28T14:11:04;2.70;;;1.90;;
7657;SDS011;8462;53.156;8.220;2023-02-28T14:13:41;1.77;;;1.50;;
7657;SDS011;8462;53.156;8.220;2023-02-28T14:16:11;2.77;;;1.43;;
7657;SDS011;8462;53.156;8.220;2023-02-28T14:18:42;1.87;;;1.70;;
7657;SDS011;8462;53.156;8.220;2023-02-28T14:21:21;1.70;;;1.60;;
7657;SDS011;8462;53.156;8.220;2023-02-28T14:27:12;2.70;;;1.50;;
7657;SDS011;8462;53.156;8.220;2023-02-28T14:35:27;2.50;;;1.70;;
7657;SDS011;8462;53.156;8.220;2023-02-28T14:38:07;3.63;;;2.10;;
7657;SDS011;8462;53.156;8.220;2023-02-28T14:40:43;3.93;;;1.87;;
7657;SDS011;8462;53.156;8.220;2023-02-28T14:43:18;4.40;;;2.07;;
7657;SDS011;8462;53.156;8.220;2023-02-28T14:45:49;3.43;;;2.23;;
7657;SDS011;8462;53.156;8.220;2023-02-28T14:48:18;3.27;;;1.70;;
7657;SDS011;8462;53.156;8.220;2023-02-28T14:50:50;4.37;;;2.27;;
7657;SDS011;8462;53.156;8.220;2023-02-28T14:53:20;3.20;;;1.90;;
7657;SDS011;8462;53.156;8.220;2023-02-28T14:55:49;3.25;;;2.13;;
7657;SDS011;8462;53.156;8.220;2023-02-28T14:58:21;4.87;;;1.87;;
7657;SDS011;8462;53.156;8.220;2023-02-28T15:00:51;3.50;;;1.97;;
7657;SDS011;8462;53.156;8.220;2023-02-28T15:03:20;3.10;;;2.20;;
7657;SDS011;8462;53.156;8.220;2023-02-28T15:05:53;4.53;;;2.07;;
7657;SDS011;8462;53.156;8.220;2023-02-28T15:08:22;2.30;;;1.67;;
7657;SDS011;8462;53.156;8.220;2023-02-28T15:10:51;3.97;;;1.87;;
7657;SDS011;8462;53.156;8.220;2023-02-28T15:13:21;3.58;;;2.38;;
7657;SDS011;8462;53.156;8.220;2023-02-28T15:15:51;2.73;;;1.73;;
7657;SDS011;8462;53.156;8.220;2023-02-28T15:18:23;3.50;;;2.07;;
7657;SDS011;8462;53.156;8.220;2023-02-28T15:23:29;5.50;;;1.80;;
7657;SDS011;8462;53.156;8.220;2023-02-28T15:25:57;4.17;;;2.60;;
7657;SDS011;8462;53.156;8.220;2023-02-28T15:28:26;3.17;;;1.70;;
7657;SDS011;8462;53.156;8.220;2023-02-28T15:30:56;2.07;;;1.63;;
7657;SDS011;8462;53.156;8.220;2023-02-28T15:33:26;2.30;;;2.10;;
7657;SDS011;8462;53.156;8.220;2023-02-28T15:36:06;2.67;;;1.77;;
7657;SDS011;8462;53.156;8.220;2023-02-28T15:38:38;4.10;;;2.10;;
7657;SDS011;8462;53.156;8.220;2023-02-28T15:41:20;3.90;;;1.87;;
7657;SDS011;8462;53.156;8.220;2023-02-28T15:43:49;4.40;;;2.50;;
7657;SDS011;8462;53.156;8.220;2023-02-28T15:46:40;3.03;;;2.30;;
7657;SDS011;8462;53.156;8.220;2023-02-28T15:49:17;3.88;;;2.55;;
7657;SDS011;8462;53.156;8.220;2023-02-28T15:51:49;3.23;;;2.23;;
7657;SDS011;8462;53.156;8.220;2023-02-28T15:54:21;3.05;;;2.22;;
7657;SDS011;8462;53.156;8.220;2023-02-28T15:56:53;4.10;;;2.10;;
7657;SDS011;8462;53.156;8.220;2023-02-28T15:59:22;2.70;;;1.70;;
7657;SDS011;8462;53.156;8.220;2023-02-28T16:02:03;3.65;;;2.00;;
7657;SDS011;8462;53.156;8.220;2023-02-28T16:04:54;3.40;;;2.30;;
7657;SDS011;8462;53.156;8.220;2023-02-28T16:07:24;3.03;;;1.95;;
7657;SDS011;8462;53.156;8.220;2023-02-28T16:09:51;3.77;;;2.20;;
7657;SDS011;8462;53.156;8.220;2023-02-28T16:12:19;3.67;;;1.87;;
7657;SDS011;8462;53.156;8.220;2023-02-28T16:14:51;2.50;;;1.90;;
7657;SDS011;8462;53.156;8.220;2023-02-28T16:17:20;3.67;;;2.30;;
7657;SDS011;8462;53.156;8.220;2023-02-28T16:19:49;4.50;;;1.70;;
7657;SDS011;8462;53.156;8.220;2023-02-28T16:22:16;1.50;;;1.30;;
7657;SDS011;8462;53.156;8.220;2023-02-28T16:24:47;1.70;;;1.43;;
7657;SDS011;8462;53.156;8.220;2023-02-28T16:27:16;2.13;;;1.60;;
7657;SDS011;8462;53.156;8.220;2023-02-28T16:29:45;3.00;;;1.87;;